createdAt,value
2018-07-05T00:01:40.193Z,6.20
2018-07-05T00:04:19.727Z,6.83
2018-07-05T00:06:59.376Z,7.77
2018-07-05T00:09:38.861Z,7.10
2018-07-05T00:12:18.471Z,6.80
2018-07-05T00:14:58.196Z,7.03
2018-07-05T00:17:37.620Z,6.97
2018-07-05T00:20:17.073Z,6.70
2018-07-05T00:22:56.542Z,6.37
2018-07-05T00:25:36.121Z,6.53
2018-07-05T00:28:15.624Z,7.20
2018-07-05T00:30:55.250Z,6.83
2018-07-05T00:33:34.882Z,7.90
2018-07-05T00:36:14.585Z,7.07
2018-07-05T00:38:54.080Z,6.53
2018-07-05T00:41:33.729Z,6.63
2018-07-05T00:44:13.379Z,6.77
2018-07-05T00:46:52.789Z,7.10
2018-07-05T00:49:32.466Z,7.17
2018-07-05T00:52:11.956Z,6.97
2018-07-05T00:54:51.570Z,7.10
2018-07-05T00:57:31.245Z,6.97
2018-07-05T01:00:10.810Z,6.23
2018-07-05T01:02:50.465Z,7.27
2018-07-05T01:05:29.946Z,6.80
2018-07-05T01:08:09.620Z,7.07
2018-07-05T01:10:49.129Z,7.30
2018-07-05T01:13:28.613Z,7.10
2018-07-05T01:16:08.251Z,7.00
2018-07-05T01:18:47.655Z,8.17
2018-07-05T01:21:27.222Z,7.00
2018-07-05T01:24:06.694Z,8.77
2018-07-05T01:26:46.161Z,8.00
2018-07-05T01:29:25.738Z,7.60
2018-07-05T01:32:05.279Z,7.17
2018-07-05T01:34:44.926Z,7.40
2018-07-05T01:37:24.523Z,7.37
2018-07-05T01:40:04.205Z,6.77
2018-07-05T01:42:43.745Z,7.00
2018-07-05T01:45:23.508Z,7.00
2018-07-05T01:48:03.058Z,6.33
2018-07-05T01:50:42.479Z,7.57
2018-07-05T01:53:22.076Z,7.90
2018-07-05T01:56:01.460Z,7.10
2018-07-05T01:58:40.986Z,6.67
2018-07-05T02:01:20.386Z,6.27
2018-07-05T02:04:00.081Z,7.30
2018-07-05T02:06:39.537Z,6.87
2018-07-05T02:09:19.055Z,6.77
2018-07-05T02:11:58.653Z,8.70
2018-07-05T02:14:38.297Z,6.60
2018-07-05T02:17:17.937Z,7.27
2018-07-05T02:19:57.542Z,7.20
2018-07-05T02:22:36.974Z,9.27
2018-07-05T02:25:16.565Z,8.70
2018-07-05T02:27:56.094Z,9.00
2018-07-05T02:30:35.637Z,10.10
2018-07-05T02:33:15.322Z,10.23
2018-07-05T02:35:54.945Z,10.40
2018-07-05T02:38:34.469Z,10.70
2018-07-05T02:41:14.017Z,9.30
2018-07-05T02:43:53.453Z,8.57
2018-07-05T02:46:33.013Z,8.20
2018-07-05T02:49:12.552Z,8.80
2018-07-05T02:51:52.161Z,7.73
2018-07-05T02:54:31.770Z,7.10
2018-07-05T02:57:11.254Z,7.83
2018-07-05T02:59:50.867Z,7.50
2018-07-05T03:02:30.339Z,8.83
2018-07-05T03:05:09.781Z,9.37
2018-07-05T03:07:49.360Z,9.23
2018-07-05T03:10:29.042Z,9.47
2018-07-05T03:13:08.607Z,9.07
2018-07-05T03:15:48.145Z,8.50
2018-07-05T03:18:27.671Z,8.20
2018-07-05T03:21:07.197Z,7.37
2018-07-05T03:23:46.870Z,7.27
2018-07-05T03:26:26.380Z,7.17
2018-07-05T03:29:06.070Z,8.17
2018-07-05T03:31:45.646Z,8.30
2018-07-05T03:34:25.186Z,8.40
2018-07-05T03:37:04.818Z,8.67
2018-07-05T03:39:44.474Z,8.83
2018-07-05T03:42:23.835Z,8.77
2018-07-05T03:45:03.276Z,8.37
2018-07-05T03:47:42.774Z,7.80
2018-07-05T03:50:16.260Z,9.23
2018-07-05T03:52:55.748Z,8.80
2018-07-05T03:55:35.326Z,8.87
2018-07-05T03:58:14.920Z,8.50
2018-07-05T04:00:54.505Z,8.27
2018-07-05T04:03:33.969Z,8.30
2018-07-05T04:06:13.349Z,8.03
2018-07-05T04:08:52.874Z,8.07
2018-07-05T04:11:32.442Z,8.40
2018-07-05T04:14:11.965Z,8.53
2018-07-05T04:16:51.576Z,8.07
2018-07-05T04:19:31.018Z,8.40
2018-07-05T04:22:10.590Z,8.60
2018-07-05T04:24:50.015Z,8.43
2018-07-05T04:27:29.589Z,8.13
2018-07-05T04:30:09.198Z,9.30
2018-07-05T04:32:48.830Z,9.07
2018-07-05T04:35:28.276Z,8.23
2018-07-05T04:38:07.928Z,8.87
2018-07-05T04:40:47.694Z,8.87
2018-07-05T04:43:27.201Z,8.77
2018-07-05T04:46:06.853Z,9.00
2018-07-05T04:48:46.329Z,8.60
2018-07-05T04:51:25.993Z,8.33
2018-07-05T04:54:05.361Z,8.53
2018-07-05T04:56:45.018Z,8.20
2018-07-05T04:59:24.536Z,8.40
2018-07-05T05:02:04.161Z,8.10
2018-07-05T05:04:44.058Z,7.90
2018-07-05T05:07:23.524Z,9.20
2018-07-05T05:10:03.121Z,9.00
2018-07-05T05:12:42.653Z,9.83
2018-07-05T05:15:22.308Z,9.43
2018-07-05T05:18:01.825Z,9.80
2018-07-05T05:20:41.599Z,9.10
2018-07-05T05:23:21.245Z,9.10
2018-07-05T05:26:00.757Z,9.30
2018-07-05T05:28:40.464Z,9.47
2018-07-05T05:31:20.344Z,9.63
2018-07-05T05:34:00.225Z,10.50
2018-07-05T05:36:39.749Z,10.60
2018-07-05T05:39:19.536Z,10.83
2018-07-05T05:41:59.054Z,10.40
2018-07-05T05:44:38.446Z,10.17
2018-07-05T05:47:18.003Z,10.60
2018-07-05T05:49:57.558Z,10.63
2018-07-05T05:52:36.987Z,11.17
2018-07-05T05:55:16.709Z,9.57
2018-07-05T05:57:56.190Z,10.23
2018-07-05T06:00:35.737Z,9.27
2018-07-05T06:03:15.330Z,9.50
2018-07-05T06:05:54.904Z,9.77
2018-07-05T06:08:34.505Z,11.00
2018-07-05T06:11:14.202Z,9.57
2018-07-05T06:13:53.946Z,9.90
2018-07-05T06:16:33.496Z,10.00
2018-07-05T06:19:12.992Z,10.07
2018-07-05T06:21:52.590Z,9.67
2018-07-05T06:24:32.078Z,10.80
2018-07-05T06:27:11.833Z,10.50
2018-07-05T06:29:51.165Z,10.50
2018-07-05T06:32:30.622Z,10.30
2018-07-05T06:35:11.305Z,9.77
2018-07-05T06:37:50.779Z,9.93
2018-07-05T06:40:30.408Z,9.90
2018-07-05T06:43:09.977Z,9.93
2018-07-05T06:45:49.666Z,9.10
2018-07-05T06:48:29.262Z,8.20
2018-07-05T06:51:08.860Z,9.03
2018-07-05T06:53:48.426Z,9.10
2018-07-05T06:56:27.893Z,9.00
2018-07-05T06:59:07.485Z,8.80
2018-07-05T07:01:47.153Z,9.27
2018-07-05T07:04:26.717Z,8.10
2018-07-05T07:07:06.377Z,9.20
2018-07-05T07:09:46.042Z,8.43
2018-07-05T07:12:25.632Z,8.43
2018-07-05T07:15:05.427Z,7.93
2018-07-05T07:17:39.076Z,7.43
2018-07-05T07:20:18.651Z,6.80
2018-07-05T07:22:58.291Z,8.03
2018-07-05T07:25:37.865Z,7.30
2018-07-05T07:28:17.437Z,7.10
2018-07-05T07:30:56.957Z,6.87
2018-07-05T07:33:36.414Z,7.43
2018-07-05T07:36:15.763Z,7.27
2018-07-05T07:38:55.257Z,7.70
2018-07-05T07:41:34.745Z,6.50
2018-07-05T07:44:01.914Z,6.03
2018-07-05T07:46:29.098Z,5.30
2018-07-05T07:48:56.283Z,6.90
2018-07-05T07:51:24.330Z,5.33
2018-07-05T07:53:51.639Z,5.70
2018-07-05T07:56:18.950Z,5.57
2018-07-05T07:58:46.114Z,5.70
2018-07-05T08:01:13.294Z,5.40
2018-07-05T08:03:40.950Z,5.40
2018-07-05T08:06:08.406Z,4.50
2018-07-05T08:08:35.645Z,4.30
2018-07-05T08:11:02.805Z,5.03
2018-07-05T08:13:30.047Z,4.13
2018-07-05T08:15:57.221Z,4.10
2018-07-05T08:18:24.406Z,4.20
2018-07-05T08:20:51.587Z,4.23
2018-07-05T08:23:18.745Z,3.90
2018-07-05T08:25:45.894Z,4.73
2018-07-05T08:28:13.058Z,4.00
2018-07-05T08:30:40.200Z,3.60
2018-07-05T08:33:07.361Z,4.17
2018-07-05T08:35:34.546Z,3.13
2018-07-05T08:38:01.723Z,3.50
2018-07-05T08:40:28.877Z,3.73
2018-07-05T08:42:56.048Z,2.97
2018-07-05T08:45:23.197Z,2.87
2018-07-05T08:47:50.375Z,3.33
2018-07-05T08:50:17.551Z,2.93
2018-07-05T08:52:44.721Z,2.87
2018-07-05T08:55:11.878Z,2.30
2018-07-05T08:57:39.047Z,2.70
2018-07-05T09:00:06.206Z,2.77
2018-07-05T09:02:33.362Z,2.60
2018-07-05T09:05:00.524Z,2.80
2018-07-05T09:07:27.696Z,2.30
2018-07-05T09:09:54.871Z,2.60
2018-07-05T09:12:22.028Z,2.57
2018-07-05T09:14:49.186Z,2.73
2018-07-05T09:17:16.346Z,2.60
2018-07-05T09:19:43.509Z,2.30
2018-07-05T09:22:10.671Z,2.27
2018-07-05T09:24:37.850Z,2.23
2018-07-05T09:27:05.015Z,2.23
2018-07-05T09:29:32.189Z,2.80
2018-07-05T09:31:59.347Z,2.43
2018-07-05T09:34:26.494Z,3.17
2018-07-05T09:36:53.650Z,3.13
2018-07-05T09:39:20.844Z,3.13
2018-07-05T09:41:48.026Z,2.50
2018-07-05T09:44:15.195Z,2.87
2018-07-05T09:46:42.349Z,2.50
2018-07-05T09:49:14.465Z,2.70
2018-07-05T09:51:41.631Z,2.73
2018-07-05T09:54:08.806Z,2.80
2018-07-05T09:56:35.957Z,2.60
2018-07-05T09:59:03.102Z,2.80
2018-07-05T10:01:30.249Z,3.00
2018-07-05T10:03:57.410Z,2.60
2018-07-05T10:06:24.566Z,2.90
2018-07-05T10:08:51.752Z,3.40
2018-07-05T10:11:18.921Z,3.27
2018-07-05T10:13:46.426Z,3.40
2018-07-05T10:16:13.238Z,3.07
2018-07-05T10:18:40.587Z,2.70
2018-07-05T10:21:07.738Z,2.90
2018-07-05T10:23:34.887Z,2.60
2018-07-05T10:26:02.046Z,2.63
2018-07-05T10:28:29.206Z,2.47
2018-07-05T10:31:08.822Z,2.60
2018-07-05T10:33:44.166Z,2.77
2018-07-05T10:36:11.329Z,2.57
2018-07-05T10:38:38.477Z,2.80
2018-07-05T10:41:18.122Z,3.03
2018-07-05T10:43:57.717Z,2.73
2018-07-05T10:46:37.201Z,3.23
2018-07-05T10:49:16.718Z,2.43
2018-07-05T10:51:56.381Z,3.07
2018-07-05T10:54:36.049Z,3.13
2018-07-05T10:57:15.496Z,2.73
2018-07-05T10:59:55.136Z,3.47
2018-07-05T11:02:34.745Z,3.17
2018-07-05T11:05:14.234Z,2.80
2018-07-05T11:07:53.914Z,2.43
2018-07-05T11:10:33.453Z,3.40
2018-07-05T11:13:12.962Z,2.83
2018-07-05T11:15:52.528Z,2.57
2018-07-05T11:18:32.040Z,3.30
2018-07-05T11:21:11.713Z,3.00
2018-07-05T11:23:51.324Z,3.97
2018-07-05T11:26:31.014Z,3.57
2018-07-05T11:29:10.590Z,4.17
2018-07-05T11:31:50.194Z,2.60
2018-07-05T11:34:29.671Z,3.17
2018-07-05T11:37:09.306Z,3.33
2018-07-05T11:39:48.872Z,4.10
2018-07-05T11:42:28.341Z,2.77
2018-07-05T11:45:07.847Z,3.30
2018-07-05T11:47:47.546Z,2.87
2018-07-05T11:50:27.045Z,2.80
2018-07-05T11:53:06.665Z,2.97
2018-07-05T11:55:46.211Z,2.30
2018-07-05T11:58:25.802Z,2.60
2018-07-05T12:01:05.487Z,2.70
2018-07-05T12:03:45.137Z,3.20
2018-07-05T12:06:24.773Z,3.07
2018-07-05T12:09:05.228Z,3.00
2018-07-05T12:11:44.696Z,3.10
2018-07-05T12:14:24.413Z,2.83
2018-07-05T12:17:03.994Z,3.53
2018-07-05T12:19:43.545Z,3.50
2018-07-05T12:22:23.035Z,3.50
2018-07-05T12:25:02.824Z,3.33
2018-07-05T12:27:42.322Z,4.20
2018-07-05T12:30:21.977Z,3.60
2018-07-05T12:33:01.605Z,3.33
2018-07-05T12:35:41.260Z,3.50
2018-07-05T12:38:20.917Z,3.77
2018-07-05T12:41:00.290Z,4.10
2018-07-05T12:43:39.845Z,3.70
2018-07-05T12:46:19.323Z,4.10
2018-07-05T12:48:58.843Z,3.73
2018-07-05T12:51:38.451Z,3.97
2018-07-05T12:54:17.998Z,4.17
2018-07-05T12:56:57.746Z,4.27
2018-07-05T12:59:37.333Z,4.40
2018-07-05T13:02:16.833Z,4.47
2018-07-05T13:04:56.511Z,4.40
2018-07-05T13:07:35.941Z,4.27
2018-07-05T13:10:15.643Z,4.17
2018-07-05T13:12:55.130Z,4.87
2018-07-05T13:15:34.808Z,4.77
2018-07-05T13:18:14.541Z,3.97
2018-07-05T13:20:54.133Z,3.93
2018-07-05T13:23:33.603Z,3.63
2018-07-05T13:26:13.571Z,3.90
2018-07-05T13:28:52.975Z,3.90
2018-07-05T13:31:32.701Z,4.43
2018-07-05T13:34:12.247Z,4.07
2018-07-05T13:36:51.752Z,3.90
2018-07-05T13:39:31.434Z,4.60
2018-07-05T13:42:10.994Z,4.23
2018-07-05T13:44:50.408Z,3.90
2018-07-05T13:47:29.963Z,3.87
2018-07-05T13:50:09.622Z,4.80
2018-07-05T13:52:49.144Z,4.53
2018-07-05T13:55:29.916Z,4.70
2018-07-05T13:58:09.417Z,4.63
2018-07-05T14:00:49.073Z,4.43
2018-07-05T14:03:28.661Z,4.10
2018-07-05T14:06:08.249Z,3.63
2018-07-05T14:08:47.812Z,5.37
2018-07-05T14:11:27.469Z,4.50
2018-07-05T14:14:06.906Z,4.60
2018-07-05T14:16:46.516Z,4.50
2018-07-05T14:19:25.867Z,5.00
2018-07-05T14:22:05.595Z,5.13
2018-07-05T14:24:45.141Z,5.03
2018-07-05T14:27:24.692Z,5.03
2018-07-05T14:30:04.273Z,5.37
2018-07-05T14:32:43.781Z,4.00
2018-07-05T14:35:23.413Z,4.80
2018-07-05T14:38:03.061Z,4.90
2018-07-05T14:40:42.769Z,5.07
2018-07-05T14:43:22.941Z,5.03
2018-07-05T14:46:02.382Z,5.47
2018-07-05T14:48:41.861Z,6.40
2018-07-05T14:51:21.338Z,6.33
2018-07-05T14:54:00.961Z,7.30
2018-07-05T14:56:40.497Z,6.70
2018-07-05T14:59:20.176Z,6.67
2018-07-05T15:02:00.045Z,6.90
2018-07-05T15:04:39.558Z,7.83
2018-07-05T15:07:19.249Z,6.87
2018-07-05T15:09:58.848Z,7.50
2018-07-05T15:12:38.405Z,6.80
2018-07-05T15:15:17.924Z,6.53
2018-07-05T15:17:57.415Z,6.43
2018-07-05T15:20:36.919Z,6.03
2018-07-05T15:23:16.417Z,6.83
2018-07-05T15:25:55.970Z,6.30
2018-07-05T15:28:35.525Z,7.07
2018-07-05T15:31:15.017Z,6.93
2018-07-05T15:33:54.515Z,5.60
2018-07-05T15:36:33.815Z,5.57
2018-07-05T15:39:13.285Z,3.97
2018-07-05T15:41:52.833Z,4.33
2018-07-05T15:44:32.186Z,5.07
2018-07-05T15:47:11.601Z,4.70
2018-07-05T15:49:50.949Z,4.90
2018-07-05T15:52:30.496Z,4.43
2018-07-05T15:55:10.110Z,5.20
2018-07-05T15:57:49.704Z,4.47
2018-07-05T16:00:30.023Z,4.40
2018-07-05T16:03:09.485Z,4.57
2018-07-05T16:05:48.826Z,4.23
2018-07-05T16:08:28.337Z,4.77
2018-07-05T16:11:07.952Z,4.50
2018-07-05T16:13:47.513Z,4.57
2018-07-05T16:16:27.098Z,4.00
2018-07-05T16:19:06.610Z,4.57
2018-07-05T16:21:46.285Z,4.40
2018-07-05T16:24:25.813Z,4.90
2018-07-05T16:27:05.431Z,4.53
2018-07-05T16:29:45.147Z,4.30
2018-07-05T16:32:24.817Z,3.90
2018-07-05T16:35:04.489Z,4.00
2018-07-05T16:37:44.081Z,4.43
2018-07-05T16:40:23.686Z,3.90
2018-07-05T16:43:03.306Z,4.00
2018-07-05T16:45:42.870Z,3.80
2018-07-05T16:48:22.443Z,4.60
2018-07-05T16:51:02.020Z,4.27
2018-07-05T16:53:41.603Z,4.13
2018-07-05T16:56:21.302Z,3.90
2018-07-05T16:59:00.777Z,3.63
2018-07-05T17:01:40.362Z,3.53
2018-07-05T17:04:19.884Z,4.23
2018-07-05T17:06:59.563Z,4.37
2018-07-05T17:09:39.081Z,4.40
2018-07-05T17:12:18.691Z,4.70
2018-07-05T17:14:58.377Z,4.80
2018-07-05T17:17:37.833Z,4.77
2018-07-05T17:20:17.498Z,5.03
2018-07-05T17:22:57.295Z,4.93
2018-07-05T17:25:37.511Z,4.90
2018-07-05T17:28:16.975Z,5.40
2018-07-05T17:30:56.606Z,5.80
2018-07-05T17:33:36.056Z,4.47
2018-07-05T17:36:15.581Z,4.73
2018-07-05T17:38:56.170Z,5.60
2018-07-05T17:41:35.745Z,5.00
2018-07-05T17:44:16.165Z,5.23
2018-07-05T17:46:55.826Z,5.37
2018-07-05T17:49:35.333Z,5.97
2018-07-05T17:52:14.784Z,5.73
2018-07-05T17:54:54.322Z,6.07
2018-07-05T17:57:33.936Z,5.90
2018-07-05T18:00:15.113Z,5.70
2018-07-05T18:02:54.755Z,5.77
2018-07-05T18:05:34.436Z,5.33
2018-07-05T18:08:14.070Z,5.57
2018-07-05T18:10:53.705Z,6.07
2018-07-05T18:13:33.341Z,5.70
2018-07-05T18:16:12.868Z,5.90
2018-07-05T18:18:52.568Z,5.87
2018-07-05T18:21:32.182Z,5.80
2018-07-05T18:24:11.702Z,5.83
2018-07-05T18:26:51.353Z,5.40
2018-07-05T18:29:30.972Z,5.60
2018-07-05T18:32:10.651Z,5.53
2018-07-05T18:34:50.283Z,6.53
2018-07-05T18:37:29.882Z,6.10
2018-07-05T18:40:09.526Z,5.90
2018-07-05T18:42:49.196Z,5.30
2018-07-05T18:45:28.710Z,5.70
2018-07-05T18:48:08.245Z,5.70
2018-07-05T18:50:47.767Z,6.40
2018-07-05T18:53:27.399Z,6.00
2018-07-05T18:56:06.930Z,6.63
2018-07-05T18:58:46.488Z,6.07
2018-07-05T19:01:26.778Z,5.60
2018-07-05T19:04:06.375Z,6.33
2018-07-05T19:06:45.885Z,6.50
2018-07-05T19:09:25.559Z,6.10
2018-07-05T19:12:05.073Z,6.00
2018-07-05T19:14:44.749Z,6.10
2018-07-05T19:17:24.377Z,6.10
2018-07-05T19:20:03.898Z,6.50
2018-07-05T19:22:43.513Z,6.87
2018-07-05T19:25:23.075Z,6.10
2018-07-05T19:28:02.706Z,6.10
2018-07-05T19:30:42.328Z,6.23
2018-07-05T19:33:21.820Z,6.33
2018-07-05T19:36:01.412Z,6.40
2018-07-05T19:38:41.033Z,6.10
2018-07-05T19:41:20.431Z,6.67
2018-07-05T19:43:59.862Z,6.00
2018-07-05T19:46:39.485Z,6.53
2018-07-05T19:49:19.126Z,5.00
2018-07-05T19:51:58.729Z,6.00
2018-07-05T19:54:38.188Z,5.77
2018-07-05T19:57:17.840Z,5.67
2018-07-05T19:59:57.631Z,5.20
2018-07-05T20:02:37.117Z,6.97
2018-07-05T20:05:16.710Z,5.87
2018-07-05T20:07:56.390Z,5.83
2018-07-05T20:10:36.045Z,5.57
2018-07-05T20:13:15.592Z,5.97
2018-07-05T20:15:55.407Z,4.90
2018-07-05T20:18:35.010Z,5.40
2018-07-05T20:21:14.520Z,5.00
2018-07-05T20:23:54.029Z,4.83
2018-07-05T20:26:33.684Z,4.87
2018-07-05T20:29:13.327Z,6.70
2018-07-05T20:31:52.855Z,6.90
2018-07-05T20:34:32.509Z,7.50
2018-07-05T20:37:12.077Z,7.63
2018-07-05T20:39:51.657Z,7.30
2018-07-05T20:42:31.280Z,8.47
2018-07-05T20:45:10.973Z,8.90
2018-07-05T20:47:50.596Z,8.20
2018-07-05T20:50:30.118Z,8.77
2018-07-05T20:53:09.625Z,8.30
2018-07-05T20:55:49.265Z,7.87
2018-07-05T20:58:28.944Z,8.10
2018-07-05T21:01:08.565Z,8.10
2018-07-05T21:03:48.518Z,8.50
2018-07-05T21:06:28.076Z,8.30
2018-07-05T21:09:07.749Z,8.40
2018-07-05T21:11:47.495Z,7.77
2018-07-05T21:14:26.941Z,6.83
2018-07-05T21:17:06.537Z,6.60
2018-07-05T21:19:45.990Z,6.90
2018-07-05T21:22:25.844Z,6.73
2018-07-05T21:25:05.815Z,7.00
2018-07-05T21:27:45.174Z,6.77
2018-07-05T21:30:24.804Z,7.37
2018-07-05T21:33:04.425Z,7.33
2018-07-05T21:35:44.093Z,8.23
2018-07-05T21:38:23.660Z,7.70
2018-07-05T21:41:03.686Z,8.23
2018-07-05T21:43:43.325Z,8.07
2018-07-05T21:46:23.181Z,7.47
2018-07-05T21:49:03.257Z,7.80
2018-07-05T21:51:42.865Z,8.23
2018-07-05T21:54:22.279Z,8.47
2018-07-05T21:57:01.757Z,8.23
2018-07-05T21:59:41.367Z,8.40
2018-07-05T22:02:20.827Z,8.67
2018-07-05T22:05:00.490Z,8.53
2018-07-05T22:07:39.986Z,8.57
2018-07-05T22:10:19.631Z,8.90
2018-07-05T22:12:59.821Z,9.47
2018-07-05T22:15:39.483Z,9.00
2018-07-05T22:19:22.076Z,8.90
2018-07-05T22:23:07.909Z,9.03
2018-07-05T22:25:53.034Z,9.07
2018-07-05T22:29:40.886Z,8.80
2018-07-05T22:32:20.614Z,8.20
2018-07-05T22:35:00.623Z,9.60
2018-07-05T22:37:40.181Z,8.60
2018-07-05T22:40:19.909Z,9.33
2018-07-05T22:42:59.475Z,8.87
2018-07-05T22:45:39.078Z,8.70
2018-07-05T22:48:18.629Z,10.00
2018-07-05T22:50:58.436Z,9.93
2018-07-05T22:53:38.130Z,9.30
2018-07-05T22:56:17.810Z,9.30
2018-07-05T22:58:57.595Z,9.53
2018-07-05T23:01:37.077Z,9.57
2018-07-05T23:04:16.726Z,8.87
2018-07-05T23:06:56.245Z,8.30
2018-07-05T23:09:35.899Z,7.50
2018-07-05T23:12:15.554Z,8.80
2018-07-05T23:14:55.174Z,8.17
2018-07-05T23:17:34.822Z,8.53
2018-07-05T23:20:14.369Z,8.37
2018-07-05T23:22:53.958Z,8.10
2018-07-05T23:25:33.545Z,8.40
2018-07-05T23:28:13.206Z,8.90
2018-07-05T23:30:52.717Z,8.30
2018-07-05T23:33:32.317Z,7.67
2018-07-05T23:36:11.974Z,7.43
2018-07-05T23:38:51.344Z,8.30
2018-07-05T23:41:30.880Z,8.40
2018-07-05T23:44:10.417Z,8.40
2018-07-05T23:46:49.815Z,7.90
2018-07-05T23:49:23.289Z,8.13
2018-07-05T23:52:02.785Z,8.50
2018-07-05T23:54:42.236Z,7.23
2018-07-05T23:57:21.737Z,7.30
